Terminal Aerodrome Forecast
Issued by NWS

Home | Current Version | Previous Version | Graphics & Text | Print | Product List | Glossary On
Versions: 1 2 3 4 5 6 7 8 9 10 11 12 13 14
000
FTUS45 KGGW 151120
TAFGDV
TAF
KGDV 151120Z 1512/1612 21007KT P6SM BKN110
     FM151400 23008KT P6SM BKN110 WS020/30030KT
     FM151700 26010G20KT P6SM BKN150
     FM160700 31010KT P6SM OVC020=

USA.gov is the U.S. government's official web portal to all federal, state and local government web resources and services.